South Bend Regional Airport
KSBN : now visible

Airfield :











YOU CAN JOIN US ON...

 
LOGIN :

Register | Disclaimer

   EN    FR    IT 

 









Legend :    VFR   Marginal VFR   IFR   Intensive IFR   Very Intensive IFR
Visi :
Ceiling :
>= 8 km
>= 3000ft
5 to 8 km
1000 to 3000 ft
1500m to 5 km
500 to 1000 ft
800 to 1500m
200 to 500 ft
< 800m
< 200 ft
Symbols :   Thunderstorms  Fog  Heavy snow  Heavy precipitations  Wind > 20 kt






- Airport Elevation : 799 ft
- IATA code : SBN


KSBN - South Bend Regional

CURRENT METAR :
  • 080454Z AUTO 36014G19KT 9SM CLR 15/13 A2967 RMK AO2 SLP044 T01500128 402560128

EXPIRED METARs :
  • 080354Z 32007KT 10SM SCT060 16/14 A2966 RMK AO2 PK WND 28037/0256 LTG DSNT SE AND S RAE15B35E47 TSE17 SLP041 P0058 T01610144
  • 080318Z 24007KT 8SM SCT013 17/15 A2963 RMK AO2 PK WND 28037/0256 LTG DSNT E-SW RAE15 TSE17 P0057 T01670150
  • 080313Z 25006KT 8SM -TSRA SCT013 BKN060 17/15 A2962 RMK AO2 PK WND 28037/0256 LTG DSNT E-SW P0057 T01720150
  • 080258Z 27026G37KT 1/2SM R27L/3500VP6000FT +TSRA FG SCT013 BKN065 OVC080 16/14 A2967 RMK AO2 PK WND 28037/0256 VIS 1/4V2 LTG DSNT ALQDS P0008 T01610144
  • 080254Z 30022G31KT 1 1/4SM R27L/4500VP6000FT +TSRA SCT024 BKN065 OVC085 16/13 A2968 RMK AO2 PK WND 29031/0253 VIS 3/4V5 LTG DSNT ALQDS TSE14B19 SLP048 P0035 60035 T01560128 53023

TAF KSBN
Valid from the 08 at 04:00 until the 09 at 00:00 UTC


080408Z 0804/0824 32007KT P6SM SCT060
FM080900 31009KT 3SM BR BKN009
FM081300 27009KT P6SM BKN025



MET'MAP, your aeronautical weather chart ! - Copyright ORBIFLY December 2007 - Disclaimer

ORBIFLY MET'MAP TEAM :

Programming & Development : Alexandra Zaïnal
Concept & original design : Baudouin d'Aumeries
Assistance for programming : Marc-Olivier Méhu
Technical & hardware support : Manuel Goepfert

Contact : metmap@orbifly.com




SOURCES & CREDITS :

   NOAA       Earth
Advisory